Tipton, CA (93272)

1:08 PM PST on February 17, 2018 (GMT -0800)
Ghost Hunter | | Change Station
Active Advisory: Freeze Watch

Elev 315 ft 36.08 °N, 119.23 °W | Updated 3 seconds ago

Clear
Clear
66.2 °F
Feels Like 66.2 °F
N
0.0
Wind Variable Wind from WSW
Gusts 0.0 mph

Today
High -- | Low -- °F
--% Chance of Precip.
Yesterday
High -- | Low -- °F
Precip. -- in
Pressure 30.16 in
Visibility 10.0 miles
Clouds Clear
Dew Point 41 °F
Humidity 39%
Rainfall 0.00 in
Snow Depth Not available.
6:42 AM 5:40 PM
Waxing Crescent, 4% visible
METAR KPTV 172056Z AUTO 28006KT 10SM CLR 21/01 A3012 RMK AO2 SLP213 T02060011 58027
Pressure 30.16 in
Visibility 10.0 miles
Clouds Clear
Dew Point 41 °F
Humidity 39%
Rainfall 0.00 in
Snow Depth Not available.
6:42 AM 5:40 PM
Waxing Crescent, 4% visible
METAR KPTV 172056Z AUTO 28006KT 10SM CLR 21/01 A3012 RMK AO2 SLP213 T02060011 58027

Get Your Daily Forecast Email!

Thanks for signing up!

Be on the lookout for a verification email in your inbox.

You'll start receiving severe weather alerts in your inbox..

×

10-Day Weather Forecast

Almanac

Astronomy

Feb. 17, 2018 Rise Set
Actual Time
Civil Twilight
Nautical Twilight
Astronomical Twilight
Moon
Length of Visible Light
Length of Day
Tomorrow will be .
, % of the Moon is Illuminated

Today's Extremes

State Highs State Lows

Community

WunderPhotos

Category 6

Welcome to Category 6. This is the collective home for Weather Underground's featured writeups by Dr. Jeff Masters (right), Bob Henson (left), Chris Burt, and other regular contributors.

Nearby

Air Quality

  Air Quality AQ Index Pollutant
Not available.

Snow Depth

Station Depth Elevation

Earthquake Activity

City Distance Mag. Time & Date
Minimum magnitude displayed is 2.5.

Coastal Water Temperatures

Place Temperature

Stations

Nearby Weather Stations

Station Location Temp. Windchill Dew Point Humidity Wind Precip. Elev Updated Type
                   

Watches & Warnings

Freeze Watch
Issued: 12:20 PM PST Feb. 17, 2018 – National Weather Service

... Freeze watch remains in effect from Monday evening through
Thursday morning...

* temperatures... lows in the mid 20 to lower 30s.

* Timing... temperatures will drop below freezing across most of
the San Joaquin Valley by early Tuesday morning. Widespread
freezing temperatures are probable again Wednesday morning,
with some areas of freezing temperatures possible again
Thursday morning.

* Impacts... freezing temperatures can damage or kill plants that
are sensitive to cold. Please check on the elderly and make sure
your animals have a warm shelter.

Precautionary/preparedness actions...

A freeze watch means sub-freezing temperatures are possible.
These conditions could kill crops and other sensitive vegetation.



Molina